Foyers, United Kingdom
Current Conditions -  °F | °C
As of 5:20 AM on Saturday 29 Nov 2014 (Local Time) from EGPE Reporting Station
Moderate Fog Moderate Fog  
Wind Chill: 34°   Ceiling: 100
Heat Index: 34°   Visibility: 0.43mi
Dew Point: 32°   Wind: 0mph
Humidity: 93%   Direction: NA
Pressure: 29.88"   Gusts: NA
Location:  57.27°N, 4.48°W
Report Text: EGPE 290520Z 00000KT 0700 R23/0800 FG BKN001 01/00 Q1012
Loading
Personal Weather Stations






























Interactive Weather Map New forecast layout! Learn more

10-Day Weather Forecast

Advertisements
Track Severe Weather on mobile